createdAt,value
2022-11-28T00:01:05.604Z,84.52
2022-11-28T00:03:32.335Z,83.49
2022-11-28T00:06:04.307Z,83.54
2022-11-28T00:08:31.740Z,82.75
2022-11-28T00:10:58.428Z,83.24
2022-11-28T00:13:25.050Z,83.61
2022-11-28T00:15:58.985Z,82.84
2022-11-28T00:18:25.545Z,83.88
2022-11-28T00:20:52.161Z,84.29
2022-11-28T00:23:18.813Z,84.27
2022-11-28T00:25:45.474Z,84.20
2022-11-28T00:28:12.184Z,83.81
2022-11-28T00:30:38.838Z,85.54
2022-11-28T00:33:05.527Z,84.11
2022-11-28T00:35:32.130Z,84.08
2022-11-28T00:37:58.717Z,83.80
2022-11-28T00:40:25.317Z,84.18
2022-11-28T00:42:51.947Z,84.42
2022-11-28T00:45:18.684Z,83.85
2022-11-28T00:47:46.753Z,84.82
2022-11-28T00:50:13.445Z,84.22
2022-11-28T00:52:40.166Z,83.00
2022-11-28T00:55:07.053Z,83.84
2022-11-28T00:57:34.420Z,83.13
2022-11-28T01:00:01.015Z,83.75
2022-11-28T01:02:28.037Z,84.39
2022-11-28T01:04:54.821Z,84.67
2022-11-28T01:07:21.596Z,84.71
2022-11-28T01:09:48.243Z,84.29
2022-11-28T01:12:14.905Z,84.16
2022-11-28T01:14:41.835Z,83.48
2022-11-28T01:17:09.148Z,84.38
2022-11-28T01:19:35.828Z,84.04
2022-11-28T01:22:02.516Z,83.40
2022-11-28T01:24:29.236Z,82.72
2022-11-28T01:26:55.823Z,82.35
2022-11-28T01:29:22.744Z,83.17
2022-11-28T01:31:49.413Z,82.86
2022-11-28T01:34:16.481Z,83.57
2022-11-28T01:36:43.226Z,83.03
2022-11-28T01:39:11.021Z,83.53
2022-11-28T01:41:37.670Z,82.27
2022-11-28T01:44:07.510Z,82.80
2022-11-28T01:46:34.875Z,83.28
2022-11-28T01:49:23.721Z,83.36
2022-11-28T01:51:56.010Z,83.94
2022-11-28T01:54:22.957Z,83.43
2022-11-28T01:56:52.202Z,82.96
2022-11-28T01:59:18.971Z,82.82
2022-11-28T02:01:45.633Z,82.73
2022-11-28T02:04:13.807Z,83.70
2022-11-28T02:06:41.305Z,84.12
2022-11-28T02:09:15.168Z,83.51
2022-11-28T02:12:03.525Z,83.42
2022-11-28T02:15:02.612Z,83.06
2022-11-28T02:17:47.681Z,82.76
2022-11-28T02:20:47.969Z,83.00
2022-11-28T02:23:44.372Z,82.06
2022-11-28T02:26:40.252Z,82.73
2022-11-28T02:29:36.127Z,82.45
2022-11-28T02:32:33.463Z,83.22
2022-11-28T02:35:18.397Z,82.92
2022-11-28T02:38:08.145Z,82.66
2022-11-28T02:40:47.909Z,83.24
2022-11-28T02:43:20.998Z,83.22
2022-11-28T02:46:06.481Z,83.74
2022-11-28T02:48:50.711Z,83.69
2022-11-28T02:51:26.496Z,83.24
2022-11-28T02:53:53.409Z,82.78
2022-11-28T02:56:20.082Z,82.32
2022-11-28T02:58:46.698Z,83.56
2022-11-28T03:01:21.469Z,83.56
2022-11-28T03:04:17.233Z,83.61
2022-11-28T03:06:48.532Z,82.79
2022-11-28T03:10:07.607Z,83.79
2022-11-28T03:12:52.251Z,83.29
2022-11-28T03:15:21.883Z,84.65
2022-11-28T03:18:11.819Z,85.05
2022-11-28T03:20:46.554Z,84.84
2022-11-28T03:23:36.757Z,84.33
2022-11-28T03:26:12.197Z,84.03
2022-11-28T03:28:43.555Z,83.98
2022-11-28T03:31:26.059Z,83.75
2022-11-28T03:33:54.881Z,84.56
2022-11-28T03:36:43.025Z,85.02
2022-11-28T03:39:12.045Z,84.10
2022-11-28T03:41:49.565Z,84.64
2022-11-28T03:44:23.157Z,83.73
2022-11-28T03:46:49.964Z,83.87
2022-11-28T03:49:20.360Z,84.23
2022-11-28T03:51:50.307Z,83.98
2022-11-28T03:54:23.103Z,85.25
2022-11-28T03:57:06.989Z,85.23
2022-11-28T03:59:44.950Z,85.17
2022-11-28T04:02:11.523Z,84.63
2022-11-28T04:04:44.266Z,84.23
2022-11-28T04:07:10.942Z,84.36
2022-11-28T04:09:45.209Z,84.36
2022-11-28T04:12:33.880Z,83.99
2022-11-28T04:15:02.390Z,84.57
2022-11-28T04:17:34.384Z,84.57
2022-11-28T04:20:23.745Z,83.61
2022-11-28T04:22:55.711Z,84.34
2022-11-28T04:25:22.904Z,84.44
2022-11-28T04:27:52.966Z,85.16
2022-11-28T04:30:19.683Z,84.06
2022-11-28T04:32:48.604Z,83.97
2022-11-28T04:35:35.528Z,84.17
2022-11-28T04:38:02.157Z,84.14
2022-11-28T04:40:30.518Z,84.76
2022-11-28T04:43:06.630Z,84.61
2022-11-28T04:45:39.087Z,83.68
2022-11-28T04:48:05.903Z,84.57
2022-11-28T04:50:38.481Z,84.46
2022-11-28T04:53:09.461Z,84.22
2022-11-28T04:55:41.140Z,84.37
2022-11-28T04:58:21.923Z,84.17
2022-11-28T05:00:49.083Z,84.94
2022-11-28T05:03:15.810Z,85.19
2022-11-28T05:05:50.262Z,85.52
2022-11-28T05:08:18.073Z,84.84
2022-11-28T05:10:44.847Z,84.15
2022-11-28T05:13:11.579Z,83.80
2022-11-28T05:15:38.165Z,83.71
2022-11-28T05:18:04.989Z,84.40
2022-11-28T05:20:31.839Z,84.66
2022-11-28T05:22:58.482Z,84.10
2022-11-28T05:25:25.190Z,84.55
2022-11-28T05:27:51.884Z,83.88
2022-11-28T05:30:18.516Z,83.94
2022-11-28T05:32:45.133Z,83.69
2022-11-28T05:35:11.818Z,83.15
2022-11-28T05:37:38.425Z,82.78
2022-11-28T05:40:05.925Z,83.90
2022-11-28T05:42:33.753Z,83.97
2022-11-28T05:45:00.479Z,84.23
2022-11-28T05:47:27.158Z,83.85
2022-11-28T05:49:53.872Z,83.07
2022-11-28T05:52:20.490Z,84.38
2022-11-28T05:54:47.132Z,83.52
2022-11-28T05:57:13.754Z,83.97
2022-11-28T05:59:40.475Z,83.86
2022-11-28T06:02:07.467Z,83.71
2022-11-28T06:04:34.237Z,83.15
2022-11-28T06:07:00.925Z,84.01
2022-11-28T06:09:27.622Z,83.39
2022-11-28T06:11:54.291Z,82.70
2022-11-28T06:14:21.065Z,82.98
2022-11-28T06:16:47.690Z,83.76
2022-11-28T06:19:14.402Z,84.12
2022-11-28T06:21:41.318Z,83.47
2022-11-28T06:24:09.167Z,83.80
2022-11-28T06:26:35.808Z,83.44
2022-11-28T06:29:03.577Z,82.86
2022-11-28T06:31:30.526Z,83.02
2022-11-28T06:33:58.041Z,83.33
2022-11-28T06:36:26.163Z,82.51
2022-11-28T06:38:53.320Z,82.95
2022-11-28T06:41:20.177Z,82.59
2022-11-28T06:43:46.845Z,82.69
2022-11-28T06:46:16.186Z,82.73
2022-11-28T06:48:44.207Z,82.60
2022-11-28T06:51:11.013Z,82.93
2022-11-28T06:53:37.644Z,82.58
2022-11-28T06:56:08.645Z,82.86
2022-11-28T06:58:35.918Z,82.60
2022-11-28T07:01:07.252Z,82.07
2022-11-28T07:03:34.023Z,82.40
2022-11-28T07:06:04.024Z,82.17
2022-11-28T07:08:31.391Z,82.28
2022-11-28T07:10:58.469Z,81.96
2022-11-28T07:13:25.205Z,81.93
2022-11-28T07:15:51.833Z,82.19
2022-11-28T07:18:18.547Z,82.48
2022-11-28T07:20:45.282Z,81.95
2022-11-28T07:23:12.141Z,81.38
2022-11-28T07:25:38.801Z,81.71
2022-11-28T07:28:05.567Z,81.55
2022-11-28T07:30:32.248Z,80.84
2022-11-28T07:32:58.972Z,81.01
2022-11-28T07:35:25.716Z,81.44
2022-11-28T07:37:52.433Z,80.12
2022-11-28T07:40:20.647Z,79.27
2022-11-28T07:42:48.831Z,80.10
2022-11-28T07:45:15.601Z,79.63
2022-11-28T07:47:42.222Z,79.13
2022-11-28T07:50:09.227Z,78.81
2022-11-28T07:52:35.958Z,79.08
2022-11-28T07:55:02.651Z,79.18
2022-11-28T07:57:30.724Z,79.90
2022-11-28T07:59:57.386Z,79.66
2022-11-28T08:02:24.113Z,78.99
2022-11-28T08:04:55.076Z,78.48
2022-11-28T08:07:22.185Z,79.08
2022-11-28T08:09:48.836Z,78.95
2022-11-28T08:12:15.492Z,77.90
2022-11-28T08:14:42.634Z,79.20
2022-11-28T08:17:09.711Z,79.28
2022-11-28T08:19:36.330Z,79.84
2022-11-28T08:22:02.991Z,79.19
2022-11-28T08:24:29.705Z,78.77
2022-11-28T08:26:57.171Z,78.88
2022-11-28T08:29:23.906Z,78.42
2022-11-28T08:31:50.604Z,77.76
2022-11-28T08:34:18.343Z,77.83
2022-11-28T08:36:45.073Z,78.31
2022-11-28T08:39:27.555Z,77.19
2022-11-28T08:41:57.385Z,77.15
2022-11-28T08:44:24.397Z,77.38
2022-11-28T08:46:51.077Z,77.36
2022-11-28T08:49:17.874Z,77.84
2022-11-28T08:51:44.599Z,76.19
2022-11-28T08:54:11.340Z,76.38
2022-11-28T08:56:37.962Z,76.98
2022-11-28T08:59:04.728Z,77.00
2022-11-28T09:01:32.114Z,76.44
2022-11-28T09:03:58.846Z,75.94
2022-11-28T09:06:25.559Z,76.27
2022-11-28T09:08:52.487Z,74.59
2022-11-28T09:11:20.193Z,75.74
2022-11-28T09:13:46.965Z,75.97
2022-11-28T09:16:14.395Z,75.52
2022-11-28T09:18:41.202Z,75.60
2022-11-28T09:21:11.654Z,75.06
2022-11-28T09:23:38.903Z,75.45
2022-11-28T09:26:09.890Z,75.49
2022-11-28T09:28:36.629Z,75.73
2022-11-28T09:31:04.244Z,74.43
2022-11-28T09:33:31.041Z,75.29
2022-11-28T09:35:58.382Z,75.99
2022-11-28T09:38:25.764Z,74.64
2022-11-28T09:40:52.437Z,75.54
2022-11-28T09:43:23.952Z,76.04
2022-11-28T09:45:51.064Z,76.83
2022-11-28T09:48:24.109Z,75.43
2022-11-28T09:50:53.137Z,75.65
2022-11-28T09:53:30.813Z,75.12
2022-11-28T09:56:04.474Z,76.23
2022-11-28T09:58:48.331Z,75.99
2022-11-28T10:01:18.183Z,75.06
2022-11-28T10:04:26.188Z,75.88
2022-11-28T10:07:04.713Z,75.37
2022-11-28T10:10:00.885Z,74.21
2022-11-28T10:12:33.189Z,75.26
2022-11-28T10:15:08.969Z,74.53
2022-11-28T10:17:44.381Z,73.82
2022-11-28T10:20:22.793Z,74.61
2022-11-28T10:23:15.817Z,75.62
2022-11-28T10:25:47.108Z,75.29
2022-11-28T10:28:19.776Z,75.38
2022-11-28T10:31:06.087Z,76.36
2022-11-28T10:33:53.908Z,75.03
2022-11-28T10:36:26.691Z,75.44
2022-11-28T10:38:53.546Z,75.13
2022-11-28T10:41:35.109Z,75.06
2022-11-28T10:44:21.592Z,75.72
2022-11-28T10:46:57.681Z,75.50
2022-11-28T10:49:33.646Z,75.10
2022-11-28T10:52:23.948Z,75.38
2022-11-28T10:55:06.209Z,74.81
2022-11-28T10:58:06.147Z,75.58
2022-11-28T11:00:32.944Z,74.79
2022-11-28T11:03:02.277Z,76.07
2022-11-28T11:05:33.618Z,76.12
2022-11-28T11:08:09.015Z,75.28
2022-11-28T11:10:44.645Z,75.29
2022-11-28T11:13:25.701Z,75.36
2022-11-28T11:16:10.468Z,75.41
2022-11-28T11:18:50.428Z,75.21
2022-11-28T11:21:20.960Z,77.11
2022-11-28T11:23:48.253Z,76.75
2022-11-28T11:26:47.899Z,76.05
2022-11-28T11:29:45.075Z,75.70
2022-11-28T11:32:25.315Z,74.57
2022-11-28T11:34:52.034Z,74.62
2022-11-28T11:37:21.219Z,74.46
2022-11-28T11:39:51.643Z,74.16
2022-11-28T11:42:29.103Z,74.69
2022-11-28T11:44:55.953Z,75.69
2022-11-28T11:47:41.374Z,76.28
2022-11-28T11:50:18.698Z,77.46
2022-11-28T11:53:07.406Z,76.93
2022-11-28T11:55:48.210Z,76.97
2022-11-28T11:58:17.865Z,77.75
2022-11-28T12:00:45.617Z,78.77
2022-11-28T12:03:15.381Z,78.19
2022-11-28T12:06:14.090Z,78.80
2022-11-28T12:09:00.206Z,78.63
2022-11-28T12:11:29.779Z,77.76
2022-11-28T12:13:57.731Z,76.86
2022-11-28T12:16:33.496Z,77.92
2022-11-28T12:19:21.557Z,78.03
2022-11-28T12:21:51.032Z,77.20
2022-11-28T12:24:21.076Z,78.18
2022-11-28T12:26:52.704Z,78.39
2022-11-28T12:29:44.440Z,77.71
2022-11-28T12:32:17.885Z,78.74
2022-11-28T12:35:04.740Z,78.59
2022-11-28T12:38:09.735Z,78.36
2022-11-28T12:40:44.585Z,77.71
2022-11-28T12:43:17.428Z,78.34
2022-11-28T12:46:00.242Z,78.48
2022-11-28T12:48:38.890Z,78.86
2022-11-28T12:51:12.589Z,78.62
2022-11-28T12:53:54.358Z,78.57
2022-11-28T12:56:30.927Z,78.38
2022-11-28T12:59:14.427Z,79.06
2022-11-28T13:02:05.238Z,77.89
2022-11-28T13:04:53.258Z,78.04
2022-11-28T13:07:54.606Z,78.64
2022-11-28T13:10:27.066Z,77.93
2022-11-28T13:13:21.498Z,78.51
2022-11-28T13:16:26.421Z,78.26
2022-11-28T13:18:54.070Z,77.42
2022-11-28T13:21:45.303Z,77.52
2022-11-28T13:24:31.950Z,77.59
2022-11-28T13:27:09.817Z,78.16
2022-11-28T13:30:09.346Z,78.83
2022-11-28T13:32:50.822Z,78.81
2022-11-28T13:35:18.242Z,78.51
2022-11-28T13:40:57.074Z,78.47
2022-11-28T13:43:33.084Z,78.32
2022-11-28T13:45:59.873Z,79.26
2022-11-28T13:51:31.496Z,78.66
2022-11-28T13:54:17.407Z,77.80
2022-11-28T13:56:48.763Z,78.02
2022-11-28T13:59:18.189Z,78.47
2022-11-28T14:01:46.212Z,78.48
2022-11-28T14:04:16.658Z,77.99
2022-11-28T14:06:47.541Z,78.76
2022-11-28T14:09:17.319Z,78.91
2022-11-28T14:11:59.814Z,79.47
2022-11-28T14:15:02.981Z,79.05
2022-11-28T14:17:42.088Z,78.95
2022-11-28T14:20:42.802Z,78.64
2022-11-28T14:23:24.329Z,78.24
2022-11-28T14:25:51.666Z,78.32
2022-11-28T14:28:29.836Z,77.01
2022-11-28T14:31:21.958Z,77.65
2022-11-28T14:33:48.697Z,77.49
2022-11-28T14:36:34.394Z,77.62
2022-11-28T14:39:33.861Z,78.38
2022-11-28T14:42:06.572Z,78.59
2022-11-28T14:44:52.941Z,78.65
2022-11-28T14:47:35.049Z,79.30
2022-11-28T14:50:04.723Z,79.02
2022-11-28T14:52:39.783Z,79.60
2022-11-28T14:55:09.930Z,79.80
2022-11-28T14:58:00.389Z,79.52
2022-11-28T15:00:30.475Z,79.40
2022-11-28T15:03:12.725Z,79.58
2022-11-28T15:05:46.452Z,79.41
2022-11-28T15:08:34.441Z,79.12
2022-11-28T15:11:19.316Z,79.49
2022-11-28T15:13:52.170Z,80.31
2022-11-28T15:16:19.272Z,80.33
2022-11-28T15:18:51.306Z,79.76
2022-11-28T15:21:18.797Z,80.61
2022-11-28T15:23:46.933Z,79.01
2022-11-28T15:26:43.026Z,79.70
2022-11-28T15:29:22.484Z,79.43
2022-11-28T15:31:51.007Z,80.07
2022-11-28T15:34:31.405Z,80.73
2022-11-28T15:37:03.670Z,79.22
2022-11-28T15:39:35.328Z,79.70
2022-11-28T15:42:03.774Z,80.34
2022-11-28T15:44:30.457Z,79.74
2022-11-28T15:46:57.105Z,79.39
2022-11-28T15:49:34.125Z,79.78
2022-11-28T15:52:04.393Z,80.28
2022-11-28T15:54:32.107Z,79.15
2022-11-28T15:56:59.813Z,79.35
2022-11-28T15:59:26.422Z,79.52
2022-11-28T16:01:59.096Z,80.37
2022-11-28T16:04:26.097Z,80.57
2022-11-28T16:06:53.401Z,79.60
2022-11-28T16:09:20.071Z,79.66
2022-11-28T16:11:48.410Z,79.46
2022-11-28T16:14:17.688Z,79.34
2022-11-28T16:16:44.443Z,79.66
2022-11-28T16:19:28.969Z,79.94
2022-11-28T16:21:57.376Z,79.42
2022-11-28T16:24:42.093Z,79.12
2022-11-28T16:27:37.600Z,78.99
2022-11-28T16:30:32.849Z,79.17
2022-11-28T16:33:00.008Z,79.10
2022-11-28T16:35:32.577Z,79.29
2022-11-28T16:38:24.175Z,79.03
2022-11-28T16:40:51.647Z,78.58
2022-11-28T16:43:24.627Z,79.39
2022-11-28T16:46:01.771Z,79.23
2022-11-28T16:48:30.177Z,79.67
2022-11-28T16:51:02.905Z,79.46
2022-11-28T16:53:41.385Z,80.40
2022-11-28T16:56:29.808Z,80.66
2022-11-28T16:59:19.130Z,81.39
2022-11-28T17:01:47.127Z,80.27
2022-11-28T17:04:27.604Z,79.99
2022-11-28T17:06:55.929Z,80.76
2022-11-28T17:09:22.681Z,80.86
2022-11-28T17:12:12.174Z,80.58
2022-11-28T17:14:39.227Z,80.65
2022-11-28T17:17:13.728Z,81.14
2022-11-28T17:19:40.517Z,81.06
2022-11-28T17:22:07.728Z,80.96
2022-11-28T17:24:34.873Z,81.30
2022-11-28T17:27:01.546Z,81.13
2022-11-28T17:29:29.486Z,81.32
2022-11-28T17:31:58.791Z,80.75
2022-11-28T17:34:26.962Z,80.08
2022-11-28T17:36:53.732Z,79.84
2022-11-28T17:39:20.498Z,79.87
2022-11-28T17:41:47.398Z,79.60
2022-11-28T17:44:25.360Z,79.79
2022-11-28T17:46:53.497Z,79.71
2022-11-28T17:49:20.331Z,79.84
2022-11-28T17:51:46.935Z,78.88
2022-11-28T17:54:17.849Z,78.32
2022-11-28T17:56:45.186Z,78.96
2022-11-28T17:59:12.126Z,79.22
2022-11-28T18:01:38.896Z,78.85
2022-11-28T18:04:05.580Z,79.38
2022-11-28T18:06:32.230Z,79.47
2022-11-28T18:08:59.653Z,80.24
2022-11-28T18:11:27.028Z,79.85
2022-11-28T18:13:53.805Z,79.83
2022-11-28T18:16:22.734Z,79.53
2022-11-28T18:18:49.597Z,79.38
2022-11-28T18:21:16.463Z,79.12
2022-11-28T18:23:44.792Z,79.17
2022-11-28T18:26:13.312Z,78.83
2022-11-28T18:28:40.277Z,78.81
2022-11-28T18:31:10.643Z,78.34
2022-11-28T18:33:38.050Z,78.63
2022-11-28T18:36:18.085Z,78.58
2022-11-28T18:38:45.188Z,79.05
2022-11-28T18:41:12.540Z,78.91
2022-11-28T18:43:39.185Z,79.70
2022-11-28T18:46:10.284Z,79.67
2022-11-28T18:48:37.398Z,80.30
2022-11-28T18:51:14.427Z,79.58
2022-11-28T18:53:41.064Z,80.45
2022-11-28T18:56:08.037Z,80.30
2022-11-28T18:58:39.037Z,79.95
2022-11-28T19:01:13.153Z,79.66
2022-11-28T19:03:39.853Z,79.27
2022-11-28T19:06:07.313Z,79.32
2022-11-28T19:08:34.276Z,79.89
2022-11-28T19:11:11.243Z,80.20
2022-11-28T19:13:38.219Z,79.42
2022-11-28T19:16:09.259Z,80.81
2022-11-28T19:18:36.111Z,80.16
2022-11-28T19:21:19.356Z,79.59
2022-11-28T19:23:48.767Z,79.86
2022-11-28T19:26:17.415Z,79.40
2022-11-28T19:28:44.117Z,79.94
2022-11-28T19:31:21.628Z,80.09
2022-11-28T19:34:00.557Z,79.49
2022-11-28T19:36:28.379Z,80.44
2022-11-28T19:38:54.979Z,80.13
2022-11-28T19:41:22.282Z,81.04
2022-11-28T19:43:48.886Z,81.41
2022-11-28T19:46:15.647Z,80.88
2022-11-28T19:48:42.469Z,81.51
2022-11-28T19:51:09.902Z,81.20
2022-11-28T19:53:40.395Z,81.29
2022-11-28T19:56:09.047Z,80.60
2022-11-28T19:58:35.953Z,80.42
2022-11-28T20:01:10.410Z,80.75
2022-11-28T20:03:37.500Z,80.42
2022-11-28T20:06:11.608Z,80.34
2022-11-28T20:08:38.833Z,80.59
2022-11-28T20:11:13.613Z,80.02
2022-11-28T20:13:41.105Z,80.99
2022-11-28T20:16:08.986Z,80.54
2022-11-28T20:18:40.190Z,81.62
2022-11-28T20:21:14.220Z,81.39
2022-11-28T20:23:41.044Z,81.14
2022-11-28T20:26:07.924Z,80.17
2022-11-28T20:28:35.577Z,79.97
2022-11-28T20:31:02.390Z,80.09
2022-11-28T20:33:29.144Z,80.18
2022-11-28T20:36:09.643Z,80.30
2022-11-28T20:38:36.309Z,80.72
2022-11-28T20:41:03.776Z,80.43
2022-11-28T20:43:31.310Z,80.17
2022-11-28T20:46:05.303Z,80.27
2022-11-28T20:48:31.834Z,79.99
2022-11-28T20:50:58.422Z,79.83
2022-11-28T20:53:27.075Z,80.35
2022-11-28T20:56:05.746Z,79.24
2022-11-28T20:58:32.410Z,79.62
2022-11-28T21:00:59.065Z,79.41
2022-11-28T21:03:25.974Z,78.79
2022-11-28T21:05:59.389Z,79.79
2022-11-28T21:08:30.429Z,79.24
2022-11-28T21:10:57.261Z,79.81
2022-11-28T21:13:23.901Z,79.89
2022-11-28T21:15:50.639Z,79.04
2022-11-28T21:18:17.356Z,79.52
2022-11-28T21:20:45.541Z,79.98
2022-11-28T21:23:13.238Z,80.45
2022-11-28T21:25:40.180Z,79.84
2022-11-28T21:28:09.125Z,80.10
2022-11-28T21:30:43.498Z,80.41
2022-11-28T21:33:11.381Z,80.06
2022-11-28T21:35:39.049Z,80.11
2022-11-28T21:38:06.124Z,79.33
2022-11-28T21:40:32.894Z,80.83
2022-11-28T21:42:59.526Z,80.10
2022-11-28T21:45:26.215Z,79.67
2022-11-28T21:47:52.882Z,80.69
2022-11-28T21:50:19.644Z,81.28
2022-11-28T21:52:46.293Z,81.98
2022-11-28T21:55:12.854Z,81.30
2022-11-28T21:57:42.198Z,81.43
2022-11-28T22:00:25.641Z,80.46
2022-11-28T22:03:32.235Z,80.12
2022-11-28T22:05:43.645Z,80.71
2022-11-28T22:08:10.829Z,80.84
2022-11-28T22:10:37.994Z,80.56
2022-11-28T22:13:04.642Z,80.36
2022-11-28T22:15:31.266Z,80.75
2022-11-28T22:17:57.871Z,80.47
2022-11-28T22:20:24.543Z,80.91
2022-11-28T22:22:51.198Z,81.24
2022-11-28T22:25:17.781Z,81.48
2022-11-28T22:27:44.440Z,80.45
2022-11-28T22:30:11.555Z,79.28
2022-11-28T22:32:38.206Z,80.06
2022-11-28T22:35:07.137Z,79.61
2022-11-28T22:37:33.781Z,79.97
2022-11-28T22:40:00.339Z,79.80
2022-11-28T22:42:27.062Z,80.02
2022-11-28T22:44:53.712Z,79.65
2022-11-28T22:47:20.409Z,79.45
2022-11-28T22:49:47.041Z,79.74
2022-11-28T22:52:13.659Z,80.11
2022-11-28T22:54:40.338Z,79.93
2022-11-28T22:57:06.951Z,79.49
2022-11-28T22:59:35.237Z,79.35
2022-11-28T23:02:02.883Z,79.70
2022-11-28T23:04:29.669Z,80.06
2022-11-28T23:06:56.401Z,80.54
2022-11-28T23:09:23.140Z,80.06
2022-11-28T23:11:49.785Z,80.17
2022-11-28T23:14:16.469Z,80.64
2022-11-28T23:16:43.475Z,79.51
2022-11-28T23:19:14.397Z,80.04
2022-11-28T23:21:42.193Z,80.02
2022-11-28T23:24:12.036Z,80.28
2022-11-28T23:26:38.735Z,79.64
2022-11-28T23:29:05.789Z,79.27
2022-11-28T23:31:33.601Z,80.06
2022-11-28T23:34:00.448Z,79.52
2022-11-28T23:36:28.943Z,80.10
2022-11-28T23:39:00.257Z,79.10
2022-11-28T23:41:27.245Z,79.75
2022-11-28T23:43:53.938Z,79.35
2022-11-28T23:46:21.177Z,80.33
2022-11-28T23:48:47.949Z,80.04
2022-11-28T23:51:15.586Z,80.20
2022-11-28T23:53:42.192Z,79.67
2022-11-28T23:56:11.479Z,79.66
2022-11-28T23:58:38.313Z,79.64
